sensor_id;sensor_type;location;lat;lon;timestamp;P1;durP1;ratioP1;P2;durP2;ratioP2
30862;SDS011;17573;55.922;37.540;2022-08-19T00:00:22;28.13;;;10.82;;
30862;SDS011;17573;55.922;37.540;2022-08-19T00:03:08;26.02;;;9.95;;
30862;SDS011;17573;55.922;37.540;2022-08-19T00:05:47;27.83;;;9.70;;
30862;SDS011;17573;55.922;37.540;2022-08-19T00:08:33;23.52;;;9.57;;
30862;SDS011;17573;55.922;37.540;2022-08-19T00:11:13;26.27;;;10.95;;
30862;SDS011;17573;55.922;37.540;2022-08-19T00:13:59;17.90;;;9.65;;
30862;SDS011;17573;55.922;37.540;2022-08-19T00:16:38;23.35;;;10.15;;
30862;SDS011;17573;55.922;37.540;2022-08-19T00:19:26;25.13;;;10.55;;
30862;SDS011;17573;55.922;37.540;2022-08-19T00:22:05;22.83;;;11.00;;
30862;SDS011;17573;55.922;37.540;2022-08-19T00:24:52;28.77;;;12.35;;
30862;SDS011;17573;55.922;37.540;2022-08-19T00:27:31;24.95;;;10.80;;
30862;SDS011;17573;55.922;37.540;2022-08-19T00:30:17;24.50;;;11.88;;
30862;SDS011;17573;55.922;37.540;2022-08-19T00:32:57;31.08;;;12.50;;
30862;SDS011;17573;55.922;37.540;2022-08-19T00:35:43;38.65;;;14.18;;
30862;SDS011;17573;55.922;37.540;2022-08-19T00:38:22;33.55;;;13.43;;
30862;SDS011;17573;55.922;37.540;2022-08-19T00:41:09;24.67;;;12.48;;
30862;SDS011;17573;55.922;37.540;2022-08-19T00:44:13;27.17;;;11.98;;
30862;SDS011;17573;55.922;37.540;2022-08-19T00:46:59;30.70;;;12.55;;
30862;SDS011;17573;55.922;37.540;2022-08-19T00:49:43;23.95;;;12.40;;
30862;SDS011;17573;55.922;37.540;2022-08-19T00:52:35;26.90;;;12.52;;
30862;SDS011;17573;55.922;37.540;2022-08-19T00:55:21;19.63;;;12.05;;
30862;SDS011;17573;55.922;37.540;2022-08-19T00:58:10;25.63;;;11.85;;
30862;SDS011;17573;55.922;37.540;2022-08-19T01:00:51;32.90;;;11.35;;
30862;SDS011;17573;55.922;37.540;2022-08-19T01:03:37;36.92;;;11.55;;
30862;SDS011;17573;55.922;37.540;2022-08-19T01:06:16;29.02;;;11.52;;
30862;SDS011;17573;55.922;37.540;2022-08-19T01:09:02;25.85;;;11.80;;
30862;SDS011;17573;55.922;37.540;2022-08-19T01:11:42;19.45;;;12.13;;
30862;SDS011;17573;55.922;37.540;2022-08-19T01:14:30;26.02;;;11.48;;
30862;SDS011;17573;55.922;37.540;2022-08-19T01:17:09;28.85;;;12.98;;
30862;SDS011;17573;55.922;37.540;2022-08-19T01:19:55;25.98;;;11.10;;
30862;SDS011;17573;55.922;37.540;2022-08-19T01:22:35;24.15;;;12.40;;
30862;SDS011;17573;55.922;37.540;2022-08-19T01:25:47;26.73;;;11.57;;
30862;SDS011;17573;55.922;37.540;2022-08-19T01:28:28;25.70;;;12.63;;
30862;SDS011;17573;55.922;37.540;2022-08-19T01:31:16;20.65;;;10.98;;
30862;SDS011;17573;55.922;37.540;2022-08-19T01:33:57;21.08;;;10.02;;
30862;SDS011;17573;55.922;37.540;2022-08-19T01:36:44;27.67;;;11.52;;
30862;SDS011;17573;55.922;37.540;2022-08-19T01:39:24;33.00;;;11.25;;
30862;SDS011;17573;55.922;37.540;2022-08-19T01:42:10;42.40;;;12.13;;
30862;SDS011;17573;55.922;37.540;2022-08-19T01:44:50;29.50;;;10.35;;
30862;SDS011;17573;55.922;37.540;2022-08-19T01:47:36;28.30;;;10.95;;
30862;SDS011;17573;55.922;37.540;2022-08-19T01:50:17;19.52;;;10.07;;
30862;SDS011;17573;55.922;37.540;2022-08-19T01:53:04;27.23;;;11.30;;
30862;SDS011;17573;55.922;37.540;2022-08-19T01:55:45;31.17;;;10.32;;
30862;SDS011;17573;55.922;37.540;2022-08-19T01:58:32;22.20;;;10.02;;
30862;SDS011;17573;55.922;37.540;2022-08-19T02:01:17;18.90;;;9.45;;
30862;SDS011;17573;55.922;37.540;2022-08-19T02:04:04;23.50;;;10.65;;
30862;SDS011;17573;55.922;37.540;2022-08-19T02:06:44;26.20;;;10.38;;
30862;SDS011;17573;55.922;37.540;2022-08-19T02:09:31;29.50;;;10.55;;
30862;SDS011;17573;55.922;37.540;2022-08-19T02:12:11;38.50;;;11.13;;
30862;SDS011;17573;55.922;37.540;2022-08-19T02:14:58;35.38;;;10.35;;
30862;SDS011;17573;55.922;37.540;2022-08-19T02:17:38;22.15;;;10.07;;
30862;SDS011;17573;55.922;37.540;2022-08-19T02:20:25;24.38;;;9.80;;
30862;SDS011;17573;55.922;37.540;2022-08-19T02:23:04;18.88;;;8.93;;
30862;SDS011;17573;55.922;37.540;2022-08-19T02:25:51;22.50;;;9.23;;
30862;SDS011;17573;55.922;37.540;2022-08-19T02:28:30;35.72;;;9.68;;
30862;SDS011;17573;55.922;37.540;2022-08-19T02:31:17;26.90;;;9.38;;
30862;SDS011;17573;55.922;37.540;2022-08-19T02:33:57;25.38;;;9.38;;
30862;SDS011;17573;55.922;37.540;2022-08-19T02:36:43;26.77;;;9.20;;
30862;SDS011;17573;55.922;37.540;2022-08-19T02:39:22;24.90;;;9.88;;
30862;SDS011;17573;55.922;37.540;2022-08-19T02:42:08;23.23;;;9.30;;
30862;SDS011;17573;55.922;37.540;2022-08-19T02:44:47;26.90;;;9.38;;
30862;SDS011;17573;55.922;37.540;2022-08-19T02:47:35;19.73;;;8.68;;
30862;SDS011;17573;55.922;37.540;2022-08-19T02:50:14;20.90;;;8.93;;
30862;SDS011;17573;55.922;37.540;2022-08-19T02:53:00;20.25;;;9.30;;
30862;SDS011;17573;55.922;37.540;2022-08-19T02:55:43;21.23;;;8.30;;
30862;SDS011;17573;55.922;37.540;2022-08-19T02:58:32;22.30;;;9.15;;
30862;SDS011;17573;55.922;37.540;2022-08-19T03:01:19;23.55;;;8.77;;
30862;SDS011;17573;55.922;37.540;2022-08-19T03:04:10;21.27;;;8.50;;
30862;SDS011;17573;55.922;37.540;2022-08-19T03:06:51;13.75;;;7.43;;
30862;SDS011;17573;55.922;37.540;2022-08-19T03:09:37;15.38;;;8.43;;
30862;SDS011;17573;55.922;37.540;2022-08-19T03:12:16;22.13;;;8.50;;
30862;SDS011;17573;55.922;37.540;2022-08-19T03:15:02;14.73;;;7.55;;
30862;SDS011;17573;55.922;37.540;2022-08-19T03:17:43;21.25;;;8.32;;
30862;SDS011;17573;55.922;37.540;2022-08-19T03:20:29;21.60;;;7.50;;
30862;SDS011;17573;55.922;37.540;2022-08-19T03:23:08;20.48;;;7.97;;
30862;SDS011;17573;55.922;37.540;2022-08-19T03:25:54;16.63;;;7.57;;
30862;SDS011;17573;55.922;37.540;2022-08-19T03:28:33;17.45;;;7.95;;
30862;SDS011;17573;55.922;37.540;2022-08-19T03:31:20;20.35;;;7.68;;
30862;SDS011;17573;55.922;37.540;2022-08-19T03:34:01;23.13;;;8.02;;
30862;SDS011;17573;55.922;37.540;2022-08-19T03:36:47;22.67;;;8.35;;
30862;SDS011;17573;55.922;37.540;2022-08-19T03:39:26;14.38;;;7.60;;
30862;SDS011;17573;55.922;37.540;2022-08-19T03:42:12;25.80;;;9.23;;
30862;SDS011;17573;55.922;37.540;2022-08-19T03:44:51;18.05;;;7.55;;
30862;SDS011;17573;55.922;37.540;2022-08-19T03:47:37;19.80;;;7.72;;
30862;SDS011;17573;55.922;37.540;2022-08-19T03:50:17;13.95;;;7.35;;
30862;SDS011;17573;55.922;37.540;2022-08-19T03:53:03;18.80;;;7.80;;
30862;SDS011;17573;55.922;37.540;2022-08-19T03:55:42;17.08;;;7.28;;
30862;SDS011;17573;55.922;37.540;2022-08-19T03:58:28;16.58;;;7.70;;
30862;SDS011;17573;55.922;37.540;2022-08-19T04:01:09;21.08;;;8.40;;
30862;SDS011;17573;55.922;37.540;2022-08-19T04:03:56;19.95;;;7.15;;
30862;SDS011;17573;55.922;37.540;2022-08-19T04:06:37;30.77;;;7.95;;
30862;SDS011;17573;55.922;37.540;2022-08-19T04:09:25;14.20;;;7.28;;
30862;SDS011;17573;55.922;37.540;2022-08-19T04:12:04;13.15;;;7.25;;
30862;SDS011;17573;55.922;37.540;2022-08-19T04:14:50;18.48;;;6.97;;
30862;SDS011;17573;55.922;37.540;2022-08-19T04:17:29;22.98;;;7.20;;
30862;SDS011;17573;55.922;37.540;2022-08-19T04:20:15;20.17;;;6.53;;
30862;SDS011;17573;55.922;37.540;2022-08-19T04:22:54;25.35;;;7.32;;
30862;SDS011;17573;55.922;37.540;2022-08-19T04:25:43;15.07;;;6.45;;
30862;SDS011;17573;55.922;37.540;2022-08-19T04:28:22;13.43;;;5.45;;
30862;SDS011;17573;55.922;37.540;2022-08-19T04:31:16;15.07;;;7.07;;
30862;SDS011;17573;55.922;37.540;2022-08-19T04:34:06;13.35;;;5.80;;
30862;SDS011;17573;55.922;37.540;2022-08-19T04:36:53;20.90;;;6.10;;
30862;SDS011;17573;55.922;37.540;2022-08-19T04:39:33;33.22;;;7.43;;
30862;SDS011;17573;55.922;37.540;2022-08-19T04:42:37;22.42;;;5.63;;
30862;SDS011;17573;55.922;37.540;2022-08-19T04:45:19;18.20;;;6.43;;
30862;SDS011;17573;55.922;37.540;2022-08-19T04:48:05;12.48;;;5.65;;
30862;SDS011;17573;55.922;37.540;2022-08-19T04:50:44;14.73;;;6.32;;
30862;SDS011;17573;55.922;37.540;2022-08-19T04:53:32;20.60;;;6.78;;
30862;SDS011;17573;55.922;37.540;2022-08-19T04:56:15;23.80;;;6.60;;
30862;SDS011;17573;55.922;37.540;2022-08-19T04:59:04;14.05;;;6.13;;
30862;SDS011;17573;55.922;37.540;2022-08-19T05:01:43;19.75;;;6.45;;
30862;SDS011;17573;55.922;37.540;2022-08-19T05:04:29;17.67;;;5.88;;
30862;SDS011;17573;55.922;37.540;2022-08-19T05:07:09;18.00;;;6.45;;
30862;SDS011;17573;55.922;37.540;2022-08-19T05:09:55;19.80;;;6.22;;
30862;SDS011;17573;55.922;37.540;2022-08-19T05:12:34;16.98;;;5.72;;
30862;SDS011;17573;55.922;37.540;2022-08-19T05:15:20;12.75;;;5.85;;
30862;SDS011;17573;55.922;37.540;2022-08-19T05:18:00;22.85;;;7.20;;
30862;SDS011;17573;55.922;37.540;2022-08-19T05:21:08;29.60;;;6.63;;
30862;SDS011;17573;55.922;37.540;2022-08-19T05:24:06;18.20;;;6.32;;
30862;SDS011;17573;55.922;37.540;2022-08-19T05:26:53;13.40;;;5.95;;
30862;SDS011;17573;55.922;37.540;2022-08-19T05:29:34;27.20;;;6.70;;
30862;SDS011;17573;55.922;37.540;2022-08-19T05:32:20;19.27;;;6.07;;
30862;SDS011;17573;55.922;37.540;2022-08-19T05:35:01;32.42;;;6.10;;
30862;SDS011;17573;55.922;37.540;2022-08-19T05:37:47;12.57;;;5.90;;
30862;SDS011;17573;55.922;37.540;2022-08-19T05:40:26;20.65;;;6.72;;
30862;SDS011;17573;55.922;37.540;2022-08-19T05:43:12;36.40;;;6.32;;
30862;SDS011;17573;55.922;37.540;2022-08-19T05:45:54;12.00;;;5.82;;
30862;SDS011;17573;55.922;37.540;2022-08-19T05:48:40;18.88;;;6.68;;
30862;SDS011;17573;55.922;37.540;2022-08-19T05:51:19;11.88;;;5.82;;
30862;SDS011;17573;55.922;37.540;2022-08-19T05:54:05;24.73;;;8.65;;
30862;SDS011;17573;55.922;37.540;2022-08-19T05:56:45;17.30;;;6.55;;
30862;SDS011;17573;55.922;37.540;2022-08-19T05:59:31;24.02;;;6.30;;
30862;SDS011;17573;55.922;37.540;2022-08-19T06:02:11;16.50;;;5.80;;
30862;SDS011;17573;55.922;37.540;2022-08-19T06:04:57;19.48;;;6.72;;
30862;SDS011;17573;55.922;37.540;2022-08-19T06:07:37;20.45;;;5.93;;
30862;SDS011;17573;55.922;37.540;2022-08-19T06:10:24;18.75;;;6.25;;
30862;SDS011;17573;55.922;37.540;2022-08-19T06:13:04;20.25;;;5.97;;
30862;SDS011;17573;55.922;37.540;2022-08-19T06:15:50;25.60;;;5.78;;
30862;SDS011;17573;55.922;37.540;2022-08-19T06:18:29;13.80;;;6.85;;
30862;SDS011;17573;55.922;37.540;2022-08-19T06:21:15;21.85;;;5.95;;
30862;SDS011;17573;55.922;37.540;2022-08-19T06:23:55;27.92;;;6.97;;
30862;SDS011;17573;55.922;37.540;2022-08-19T06:26:43;22.92;;;6.55;;
30862;SDS011;17573;55.922;37.540;2022-08-19T06:29:25;18.73;;;5.85;;
30862;SDS011;17573;55.922;37.540;2022-08-19T06:32:11;29.60;;;6.00;;
30862;SDS011;17573;55.922;37.540;2022-08-19T06:34:51;16.90;;;5.90;;
30862;SDS011;17573;55.922;37.540;2022-08-19T06:37:40;24.17;;;6.78;;
30862;SDS011;17573;55.922;37.540;2022-08-19T06:40:21;24.90;;;6.60;;
30862;SDS011;17573;55.922;37.540;2022-08-19T06:43:07;26.55;;;6.18;;
30862;SDS011;17573;55.922;37.540;2022-08-19T06:45:46;24.17;;;6.47;;
30862;SDS011;17573;55.922;37.540;2022-08-19T06:48:32;25.27;;;6.60;;
30862;SDS011;17573;55.922;37.540;2022-08-19T06:51:14;18.13;;;6.97;;
30862;SDS011;17573;55.922;37.540;2022-08-19T06:54:00;17.75;;;6.05;;
30862;SDS011;17573;55.922;37.540;2022-08-19T06:56:40;19.40;;;5.93;;
30862;SDS011;17573;55.922;37.540;2022-08-19T06:59:26;18.85;;;5.93;;
30862;SDS011;17573;55.922;37.540;2022-08-19T07:02:06;19.83;;;5.45;;
30862;SDS011;17573;55.922;37.540;2022-08-19T07:04:52;20.38;;;6.18;;
30862;SDS011;17573;55.922;37.540;2022-08-19T07:07:31;13.52;;;6.28;;
30862;SDS011;17573;55.922;37.540;2022-08-19T07:10:18;13.38;;;5.43;;
30862;SDS011;17573;55.922;37.540;2022-08-19T07:12:57;17.23;;;5.35;;
30862;SDS011;17573;55.922;37.540;2022-08-19T07:15:44;25.50;;;6.28;;
30862;SDS011;17573;55.922;37.540;2022-08-19T07:18:25;11.55;;;5.38;;
30862;SDS011;17573;55.922;37.540;2022-08-19T07:21:14;19.02;;;6.25;;
30862;SDS011;17573;55.922;37.540;2022-08-19T07:23:56;24.67;;;5.97;;
30862;SDS011;17573;55.922;37.540;2022-08-19T07:26:42;15.30;;;5.63;;
30862;SDS011;17573;55.922;37.540;2022-08-19T07:29:22;12.60;;;5.32;;
30862;SDS011;17573;55.922;37.540;2022-08-19T07:32:09;33.95;;;6.22;;
30862;SDS011;17573;55.922;37.540;2022-08-19T07:34:50;16.13;;;4.70;;
30862;SDS011;17573;55.922;37.540;2022-08-19T07:37:36;9.38;;;4.93;;
30862;SDS011;17573;55.922;37.540;2022-08-19T07:40:15;53.08;;;6.35;;
30862;SDS011;17573;55.922;37.540;2022-08-19T07:43:01;10.75;;;4.25;;
30862;SDS011;17573;55.922;37.540;2022-08-19T07:45:40;45.35;;;8.15;;
30862;SDS011;17573;55.922;37.540;2022-08-19T07:48:26;18.00;;;4.43;;
30862;SDS011;17573;55.922;37.540;2022-08-19T07:51:07;13.88;;;4.70;;
30862;SDS011;17573;55.922;37.540;2022-08-19T07:53:53;21.70;;;6.70;;
30862;SDS011;17573;55.922;37.540;2022-08-19T07:56:32;13.70;;;4.40;;
30862;SDS011;17573;55.922;37.540;2022-08-19T07:59:19;11.13;;;4.28;;
30862;SDS011;17573;55.922;37.540;2022-08-19T08:01:59;21.63;;;4.63;;
30862;SDS011;17573;55.922;37.540;2022-08-19T08:04:45;18.90;;;4.88;;
30862;SDS011;17573;55.922;37.540;2022-08-19T08:07:43;10.85;;;3.30;;
30862;SDS011;17573;55.922;37.540;2022-08-19T08:10:47;16.75;;;4.25;;
30862;SDS011;17573;55.922;37.540;2022-08-19T08:13:26;15.55;;;4.45;;
30862;SDS011;17573;55.922;37.540;2022-08-19T08:16:13;16.08;;;4.63;;
30862;SDS011;17573;55.922;37.540;2022-08-19T08:18:52;18.35;;;5.60;;
30862;SDS011;17573;55.922;37.540;2022-08-19T08:21:38;18.90;;;3.72;;
30862;SDS011;17573;55.922;37.540;2022-08-19T08:24:17;15.75;;;4.53;;
30862;SDS011;17573;55.922;37.540;2022-08-19T08:27:03;14.05;;;4.40;;
30862;SDS011;17573;55.922;37.540;2022-08-19T08:29:42;10.57;;;3.85;;
30862;SDS011;17573;55.922;37.540;2022-08-19T08:32:28;26.80;;;4.95;;
30862;SDS011;17573;55.922;37.540;2022-08-19T08:35:11;5.05;;;3.45;;
30862;SDS011;17573;55.922;37.540;2022-08-19T08:37:58;12.27;;;3.45;;
30862;SDS011;17573;55.922;37.540;2022-08-19T08:40:39;11.95;;;4.60;;
30862;SDS011;17573;55.922;37.540;2022-08-19T08:43:35;15.30;;;4.57;;
30862;SDS011;17573;55.922;37.540;2022-08-19T08:46:18;36.45;;;4.57;;
30862;SDS011;17573;55.922;37.540;2022-08-19T08:55:22;13.93;;;4.35;;
30862;SDS011;17573;55.922;37.540;2022-08-19T08:58:04;14.48;;;4.05;;
30862;SDS011;17573;55.922;37.540;2022-08-19T09:00:55;8.55;;;3.80;;
30862;SDS011;17573;55.922;37.540;2022-08-19T09:03:36;7.03;;;3.72;;
30862;SDS011;17573;55.922;37.540;2022-08-19T09:06:26;9.52;;;4.35;;
30862;SDS011;17573;55.922;37.540;2022-08-19T09:09:29;19.35;;;4.70;;
30862;SDS011;17573;55.922;37.540;2022-08-19T09:15:00;9.45;;;3.83;;
30862;SDS011;17573;55.922;37.540;2022-08-19T09:17:49;15.93;;;4.50;;
30862;SDS011;17573;55.922;37.540;2022-08-19T09:20:28;15.07;;;4.88;;
30862;SDS011;17573;55.922;37.540;2022-08-19T09:23:14;11.13;;;4.15;;
30862;SDS011;17573;55.922;37.540;2022-08-19T09:25:54;8.45;;;4.88;;
30862;SDS011;17573;55.922;37.540;2022-08-19T09:28:41;18.20;;;5.18;;
30862;SDS011;17573;55.922;37.540;2022-08-19T09:31:24;17.25;;;4.80;;
30862;SDS011;17573;55.922;37.540;2022-08-19T09:34:11;17.17;;;4.80;;
30862;SDS011;17573;55.922;37.540;2022-08-19T09:36:50;15.05;;;5.38;;
30862;SDS011;17573;55.922;37.540;2022-08-19T09:39:38;21.38;;;9.48;;
30862;SDS011;17573;55.922;37.540;2022-08-19T09:42:19;14.93;;;4.03;;
30862;SDS011;17573;55.922;37.540;2022-08-19T09:45:05;7.40;;;4.47;;
30862;SDS011;17573;55.922;37.540;2022-08-19T09:47:44;16.13;;;4.55;;
30862;SDS011;17573;55.922;37.540;2022-08-19T09:50:30;17.88;;;5.00;;
30862;SDS011;17573;55.922;37.540;2022-08-19T09:53:12;12.23;;;4.28;;
30862;SDS011;17573;55.922;37.540;2022-08-19T09:56:00;11.75;;;4.68;;
30862;SDS011;17573;55.922;37.540;2022-08-19T09:58:40;10.85;;;4.50;;
30862;SDS011;17573;55.922;37.540;2022-08-19T10:01:27;27.52;;;4.63;;
30862;SDS011;17573;55.922;37.540;2022-08-19T10:04:07;18.58;;;5.25;;
30862;SDS011;17573;55.922;37.540;2022-08-19T10:06:55;13.75;;;3.47;;
30862;SDS011;17573;55.922;37.540;2022-08-19T10:09:34;39.97;;;5.28;;
30862;SDS011;17573;55.922;37.540;2022-08-19T10:12:20;17.48;;;4.20;;
30862;SDS011;17573;55.922;37.540;2022-08-19T10:14:59;9.80;;;4.10;;
30862;SDS011;17573;55.922;37.540;2022-08-19T10:17:45;12.73;;;4.13;;
30862;SDS011;17573;55.922;37.540;2022-08-19T10:20:24;5.85;;;3.50;;
30862;SDS011;17573;55.922;37.540;2022-08-19T10:23:10;15.70;;;4.40;;
30862;SDS011;17573;55.922;37.540;2022-08-19T10:25:50;27.15;;;5.57;;
30862;SDS011;17573;55.922;37.540;2022-08-19T10:28:36;10.20;;;4.35;;
30862;SDS011;17573;55.922;37.540;2022-08-19T10:31:16;30.52;;;5.78;;
30862;SDS011;17573;55.922;37.540;2022-08-19T10:34:04;30.40;;;5.80;;
30862;SDS011;17573;55.922;37.540;2022-08-19T10:36:43;15.77;;;4.53;;
30862;SDS011;17573;55.922;37.540;2022-08-19T10:39:30;25.63;;;5.68;;
30862;SDS011;17573;55.922;37.540;2022-08-19T10:42:10;19.75;;;4.80;;
30862;SDS011;17573;55.922;37.540;2022-08-19T10:44:56;19.25;;;4.57;;
30862;SDS011;17573;55.922;37.540;2022-08-19T10:47:35;11.25;;;4.05;;
30862;SDS011;17573;55.922;37.540;2022-08-19T10:50:21;13.15;;;4.40;;
30862;SDS011;17573;55.922;37.540;2022-08-19T10:53:18;8.15;;;4.40;;
30862;SDS011;17573;55.922;37.540;2022-08-19T10:56:04;19.13;;;4.40;;
30862;SDS011;17573;55.922;37.540;2022-08-19T10:59:03;39.47;;;5.60;;
30862;SDS011;17573;55.922;37.540;2022-08-19T11:01:51;17.15;;;4.88;;
30862;SDS011;17573;55.922;37.540;2022-08-19T11:04:30;17.50;;;4.13;;
30862;SDS011;17573;55.922;37.540;2022-08-19T11:07:16;16.80;;;4.22;;
30862;SDS011;17573;55.922;37.540;2022-08-19T11:09:55;17.27;;;3.90;;
30862;SDS011;17573;55.922;37.540;2022-08-19T11:12:42;10.75;;;4.03;;
30862;SDS011;17573;55.922;37.540;2022-08-19T11:15:21;14.88;;;3.78;;
30862;SDS011;17573;55.922;37.540;2022-08-19T11:18:07;12.63;;;4.03;;
30862;SDS011;17573;55.922;37.540;2022-08-19T11:20:46;16.48;;;4.22;;
30862;SDS011;17573;55.922;37.540;2022-08-19T11:23:32;19.98;;;4.47;;
30862;SDS011;17573;55.922;37.540;2022-08-19T11:26:12;29.95;;;5.28;;
30862;SDS011;17573;55.922;37.540;2022-08-19T11:28:58;22.38;;;5.15;;
30862;SDS011;17573;55.922;37.540;2022-08-19T11:31:40;19.45;;;5.25;;
30862;SDS011;17573;55.922;37.540;2022-08-19T11:34:26;11.52;;;4.53;;
30862;SDS011;17573;55.922;37.540;2022-08-19T11:37:06;15.00;;;4.55;;
30862;SDS011;17573;55.922;37.540;2022-08-19T11:39:52;21.17;;;4.10;;
30862;SDS011;17573;55.922;37.540;2022-08-19T11:42:31;22.23;;;4.95;;
30862;SDS011;17573;55.922;37.540;2022-08-19T11:45:35;8.63;;;4.10;;
30862;SDS011;17573;55.922;37.540;2022-08-19T11:48:15;11.70;;;3.97;;
30862;SDS011;17573;55.922;37.540;2022-08-19T11:51:06;16.00;;;4.45;;
30862;SDS011;17573;55.922;37.540;2022-08-19T11:53:57;16.95;;;4.22;;
30862;SDS011;17573;55.922;37.540;2022-08-19T11:56:50;19.02;;;4.07;;
30862;SDS011;17573;55.922;37.540;2022-08-19T11:59:23;19.08;;;3.83;;
30862;SDS011;17573;55.922;37.540;2022-08-19T12:02:16;15.93;;;4.03;;
30862;SDS011;17573;55.922;37.540;2022-08-19T12:04:49;24.55;;;3.45;;
30862;SDS011;17573;55.922;37.540;2022-08-19T12:07:41;14.63;;;3.30;;
30862;SDS011;17573;55.922;37.540;2022-08-19T12:10:14;15.40;;;4.57;;
30862;SDS011;17573;55.922;37.540;2022-08-19T12:13:08;17.40;;;3.78;;
30862;SDS011;17573;55.922;37.540;2022-08-19T12:15:40;8.95;;;3.88;;
30862;SDS011;17573;55.922;37.540;2022-08-19T12:18:33;12.02;;;4.07;;
30862;SDS011;17573;55.922;37.540;2022-08-19T12:21:05;20.90;;;4.93;;
30862;SDS011;17573;55.922;37.540;2022-08-19T12:23:59;8.18;;;3.55;;
30862;SDS011;17573;55.922;37.540;2022-08-19T12:26:33;13.63;;;4.43;;
30862;SDS011;17573;55.922;37.540;2022-08-19T12:29:27;8.07;;;3.88;;
30862;SDS011;17573;55.922;37.540;2022-08-19T12:31:59;14.65;;;4.07;;
30862;SDS011;17573;55.922;37.540;2022-08-19T12:34:52;11.23;;;3.38;;
30862;SDS011;17573;55.922;37.540;2022-08-19T12:37:24;22.15;;;3.55;;
30862;SDS011;17573;55.922;37.540;2022-08-19T12:40:17;13.13;;;3.50;;
30862;SDS011;17573;55.922;37.540;2022-08-19T12:42:52;23.00;;;3.90;;
30862;SDS011;17573;55.922;37.540;2022-08-19T12:45:45;10.35;;;3.80;;
30862;SDS011;17573;55.922;37.540;2022-08-19T12:48:17;16.63;;;4.32;;
30862;SDS011;17573;55.922;37.540;2022-08-19T12:51:14;22.80;;;5.18;;
30862;SDS011;17573;55.922;37.540;2022-08-19T12:53:49;15.98;;;4.35;;
30862;SDS011;17573;55.922;37.540;2022-08-19T12:56:42;13.18;;;4.10;;
30862;SDS011;17573;55.922;37.540;2022-08-19T12:59:16;8.88;;;4.28;;
30862;SDS011;17573;55.922;37.540;2022-08-19T13:02:09;10.25;;;4.20;;
30862;SDS011;17573;55.922;37.540;2022-08-19T13:04:41;16.38;;;4.25;;
30862;SDS011;17573;55.922;37.540;2022-08-19T13:07:34;15.80;;;4.55;;
30862;SDS011;17573;55.922;37.540;2022-08-19T13:10:10;12.88;;;4.40;;
30862;SDS011;17573;55.922;37.540;2022-08-19T13:13:05;14.73;;;4.20;;
30862;SDS011;17573;55.922;37.540;2022-08-19T13:18:33;13.15;;;4.07;;
30862;SDS011;17573;55.922;37.540;2022-08-19T13:21:06;25.45;;;4.93;;
30862;SDS011;17573;55.922;37.540;2022-08-19T13:24:01;20.48;;;4.45;;
30862;SDS011;17573;55.922;37.540;2022-08-19T13:26:33;19.75;;;4.03;;
30862;SDS011;17573;55.922;37.540;2022-08-19T13:29:26;13.77;;;4.75;;
30862;SDS011;17573;55.922;37.540;2022-08-19T13:32:17;11.15;;;4.00;;
30862;SDS011;17573;55.922;37.540;2022-08-19T13:35:28;15.50;;;4.95;;
30862;SDS011;17573;55.922;37.540;2022-08-19T13:38:01;19.70;;;4.43;;
30862;SDS011;17573;55.922;37.540;2022-08-19T13:40:54;25.77;;;5.13;;
30862;SDS011;17573;55.922;37.540;2022-08-19T13:43:27;17.02;;;4.70;;
30862;SDS011;17573;55.922;37.540;2022-08-19T13:46:20;16.60;;;4.30;;
30862;SDS011;17573;55.922;37.540;2022-08-19T13:48:52;29.27;;;5.35;;
30862;SDS011;17573;55.922;37.540;2022-08-19T13:51:45;17.38;;;4.20;;
30862;SDS011;17573;55.922;37.540;2022-08-19T13:54:17;29.00;;;4.75;;
30862;SDS011;17573;55.922;37.540;2022-08-19T13:57:10;13.65;;;4.43;;
30862;SDS011;17573;55.922;37.540;2022-08-19T13:59:43;17.23;;;4.93;;
30862;SDS011;17573;55.922;37.540;2022-08-19T14:02:36;10.10;;;4.15;;
30862;SDS011;17573;55.922;37.540;2022-08-19T14:05:10;24.92;;;4.70;;
30862;SDS011;17573;55.922;37.540;2022-08-19T14:08:06;11.10;;;4.47;;
30862;SDS011;17573;55.922;37.540;2022-08-19T14:10:39;24.23;;;5.00;;
30862;SDS011;17573;55.922;37.540;2022-08-19T14:13:31;17.92;;;4.63;;
30862;SDS011;17573;55.922;37.540;2022-08-19T14:16:09;14.52;;;4.28;;
30862;SDS011;17573;55.922;37.540;2022-08-19T14:19:03;26.38;;;5.40;;
30862;SDS011;17573;55.922;37.540;2022-08-19T14:21:35;8.10;;;4.13;;
30862;SDS011;17573;55.922;37.540;2022-08-19T14:24:28;13.18;;;4.35;;
30862;SDS011;17573;55.922;37.540;2022-08-19T14:27:01;8.88;;;3.78;;
30862;SDS011;17573;55.922;37.540;2022-08-19T14:29:53;16.02;;;3.80;;
30862;SDS011;17573;55.922;37.540;2022-08-19T14:32:28;15.32;;;4.97;;
30862;SDS011;17573;55.922;37.540;2022-08-19T14:35:21;24.55;;;5.15;;
30862;SDS011;17573;55.922;37.540;2022-08-19T14:37:54;20.23;;;5.40;;
30862;SDS011;17573;55.922;37.540;2022-08-19T14:40:48;20.88;;;5.57;;
30862;SDS011;17573;55.922;37.540;2022-08-19T14:43:20;17.02;;;4.32;;
30862;SDS011;17573;55.922;37.540;2022-08-19T14:46:14;21.73;;;6.55;;
30862;SDS011;17573;55.922;37.540;2022-08-19T14:48:48;53.22;;;6.88;;
30862;SDS011;17573;55.922;37.540;2022-08-19T14:51:41;17.33;;;4.45;;
30862;SDS011;17573;55.922;37.540;2022-08-19T14:54:14;20.55;;;4.18;;
30862;SDS011;17573;55.922;37.540;2022-08-19T14:57:06;9.32;;;3.55;;
30862;SDS011;17573;55.922;37.540;2022-08-19T14:59:38;20.17;;;5.30;;
30862;SDS011;17573;55.922;37.540;2022-08-19T15:02:31;14.98;;;4.20;;
30862;SDS011;17573;55.922;37.540;2022-08-19T15:05:04;12.70;;;3.97;;
30862;SDS011;17573;55.922;37.540;2022-08-19T15:07:57;19.50;;;4.03;;
30862;SDS011;17573;55.922;37.540;2022-08-19T15:10:29;11.90;;;4.10;;
30862;SDS011;17573;55.922;37.540;2022-08-19T15:13:22;22.08;;;5.25;;
30862;SDS011;17573;55.922;37.540;2022-08-19T15:15:55;17.80;;;5.18;;
30862;SDS011;17573;55.922;37.540;2022-08-19T15:18:49;24.42;;;5.47;;
30862;SDS011;17573;55.922;37.540;2022-08-19T15:21:23;17.45;;;4.15;;
30862;SDS011;17573;55.922;37.540;2022-08-19T15:24:16;63.17;;;8.77;;
30862;SDS011;17573;55.922;37.540;2022-08-19T15:26:48;114.35;;;14.77;;
30862;SDS011;17573;55.922;37.540;2022-08-19T15:29:41;24.40;;;4.90;;
30862;SDS011;17573;55.922;37.540;2022-08-19T15:32:13;15.27;;;4.75;;
30862;SDS011;17573;55.922;37.540;2022-08-19T15:35:06;28.98;;;4.75;;
30862;SDS011;17573;55.922;37.540;2022-08-19T15:37:38;17.70;;;4.82;;
30862;SDS011;17573;55.922;37.540;2022-08-19T15:40:31;32.22;;;6.18;;
30862;SDS011;17573;55.922;37.540;2022-08-19T15:43:04;41.63;;;6.00;;
30862;SDS011;17573;55.922;37.540;2022-08-19T15:45:57;29.98;;;4.28;;
30862;SDS011;17573;55.922;37.540;2022-08-19T15:48:29;32.20;;;4.90;;
30862;SDS011;17573;55.922;37.540;2022-08-19T15:51:23;16.92;;;4.63;;
30862;SDS011;17573;55.922;37.540;2022-08-19T15:53:56;17.20;;;3.80;;
30862;SDS011;17573;55.922;37.540;2022-08-19T15:56:50;21.25;;;4.43;;
30862;SDS011;17573;55.922;37.540;2022-08-19T15:59:40;15.63;;;6.03;;
30862;SDS011;17573;55.922;37.540;2022-08-19T16:02:51;13.43;;;4.20;;
30862;SDS011;17573;55.922;37.540;2022-08-19T16:05:41;17.92;;;4.65;;
30862;SDS011;17573;55.922;37.540;2022-08-19T16:11:26;26.27;;;4.50;;
30862;SDS011;17573;55.922;37.540;2022-08-19T16:14:21;18.05;;;4.85;;